Weather at Sungai Pakning Bengkalis Airport

Public forecast

Using degrees Celsius for public forecast. Weather courtesy of forecast.io.

Closest aviation weather report (METAR) to Sungai Pakning Bengkalis Airport

Closest report is Malacca International Airport, 54.2 nm (100.4 km) N. Retrieved 2022/06/28 11:00 UTC (11 minutes ago):

WMKM 281100Z VRB02KT 9999 FEW017CB 29/24 Q1006

Closest aviation forecast (TAF) to Sungai Pakning Bengkalis Airport

Forecast is more than 12 hours old.

Closest forecast is Pinang Kampai Airport, 44.8 nm (82.9 km) WNW. Retrieved 2017/11/23 00:00 UTC (5 years ago):

TAF WIBD 232300Z 2400/2424 00000KT 8000 SCT013 TEMPO 2410/2413 32008KT 4000 TSRA BKN012 SCT017CB